createdAt,value
2022-11-08T00:04:34.033Z,4
2022-11-08T00:33:35.554Z,7
2022-11-08T01:02:43.194Z,6
2022-11-08T01:31:45.587Z,6
2022-11-08T02:00:51.151Z,7
2022-11-08T02:29:50.308Z,7
2022-11-08T02:59:00.211Z,7
2022-11-08T03:28:04.796Z,7
2022-11-08T03:57:10.168Z,7
2022-11-08T04:26:14.248Z,7
2022-11-08T04:55:23.403Z,6
2022-11-08T05:24:23.154Z,7
2022-11-08T05:53:30.823Z,7
2022-11-08T06:22:36.629Z,6
2022-11-08T06:51:44.916Z,7
2022-11-08T07:20:53.051Z,7
2022-11-08T07:50:02.869Z,7
2022-11-08T08:19:15.648Z,8
2022-11-08T08:48:30.969Z,7
2022-11-08T09:17:39.454Z,7
2022-11-08T09:46:49.098Z,8
2022-11-08T10:16:10.887Z,4
2022-11-08T10:45:17.637Z,11
2022-11-08T11:14:28.824Z,8
2022-11-08T11:43:34.731Z,10
2022-11-08T12:12:47.246Z,13
2022-11-08T12:41:55.513Z,8
2022-11-08T13:11:02.655Z,10
2022-11-08T13:40:15.331Z,10
2022-11-08T14:09:33.883Z,7
2022-11-08T14:38:32.590Z,8
2022-11-08T15:07:34.933Z,9
2022-11-08T15:36:42.592Z,8
2022-11-08T16:05:43.946Z,13
2022-11-08T16:34:48.874Z,11
2022-11-08T17:03:52.730Z,14
2022-11-08T17:32:55.555Z,14
2022-11-08T18:01:54.310Z,20
2022-11-08T18:30:37.464Z,14
2022-11-08T18:59:42.744Z,11
2022-11-08T19:28:46.694Z,11
2022-11-08T19:57:54.063Z,11
2022-11-08T20:26:59.215Z,14
2022-11-08T20:56:03.397Z,13
2022-11-08T21:25:01.855Z,13
2022-11-08T21:53:57.117Z,10
2022-11-08T22:23:04.979Z,10
2022-11-08T22:51:36.160Z,11
2022-11-08T23:20:41.882Z,9
2022-11-08T23:49:51.379Z,8
